Terminal Aerodrome Forecast
Issued by NWS Sioux Falls, SD

Home | Current Version | Previous Version | Graphics & Text | Print | Product List | Glossary On
Versions: 1 2 3 4 5 6 7 8 9 10 11 12 13
000
FTUS43 KFSD 131100 RRA
TAFSUX
TAF
KSUX 131145Z 1312/1412 01016G24KT P6SM OVC012
     FM131500 01018G27KT 6SM -SHRA OVC015
      TEMPO 1315/1316 4SM TSRA OVC025CB
     FM131900 36025G34KT 1SM -SN OVC020
      TEMPO 1319/1320 5SM -RASN OVC015
     FM132300 36022G33KT 4SM -SN OVC025
     FM140000 35020G32KT P6SM SCT025 OVC120
     FM140800 34017G24KT P6SM OVC150=

USA.gov is the U.S. government's official web portal to all federal, state and local government web resources and services.